Terminal Aerodrome Forecast
Issued by NWS

Home | Current Version | Previous Version | Text Only | Print | Product List | Glossary On
Versions: 1 2 3 4 5 6 7 8 9 10 11 12 13 14 15 16 17 18 19
804
FTUS42 KTAE 241727
TAFECP
TAF
KECP 241727Z 2418/2518 18010KT P6SM SCT050
     FM250600 15003KT 6SM BR SCT020
     FM250800 17006KT 2SM BR BKN002
     FM251300 16008KT P6SM SCT020=

USA.gov is the U.S. government's official web portal to all federal, state and local government web resources and services.